Avon, Mississippi
Current Conditions -  °F | °C
As of 10:53 PM on Wednesday 26 Nov 2014 (Local Time) from KGLH Reporting Station
Clear Clear  
Wind Chill:   Ceiling: Unl
Heat Index:   Visibility: 10mi
Dew Point:   Wind: 7mph
Humidity: 63%   Direction: 270°W
Pressure: 30.23"   Gusts: NA
Location:  33.23°N, 91.05°W
Report Text: KGLH 270453Z AUTO 27006KT 10SM CLR 07/00 A3023 RMK AO2 SLP246 T00670000
Loading
Personal Weather Stations






























Interactive Weather Map New forecast layout! Learn more

10-Day Weather Forecast

Advertisements
Track Severe Weather on mobile